East Middlebury, Vermont
Current Conditions -  °F | °C
As of 9:35 AM on Wednesday 22 Oct 2014 (Local Time) from K6B0 Reporting Station
Overcast Overcast  
Wind Chill:   Ceiling: 4200
Heat Index:   Visibility: 10mi
Dew Point:   Wind: 10mph
Humidity: 100%   Direction: 360°N
Pressure: 30.15"   Gusts: 16mph
Location:  43.97°N, 73.11°W
Report Text: K6B0 221335Z AUTO 36009G14KT 10SM SCT005 SCT016 OVC042 08/08 A3015 RMK AO2 T00830083
Loading
Personal Weather Stations






























Interactive Weather Map
Tropical Storm Tracking
New forecast layout! Learn more

10-Day Weather Forecast

Advertisements
Track Severe Weather on mobile